createdAt,value
2022-07-27T00:01:38.023Z,17.70
2022-07-27T00:04:04.797Z,17.70
2022-07-27T00:06:31.490Z,17.80
2022-07-27T00:08:58.106Z,17.80
2022-07-27T00:11:24.738Z,17.80
2022-07-27T00:13:51.354Z,17.80
2022-07-27T00:16:18.024Z,17.90
2022-07-27T00:18:44.728Z,17.90
2022-07-27T00:21:11.466Z,17.90
2022-07-27T00:23:38.080Z,17.80
2022-07-27T00:26:04.714Z,17.60
2022-07-27T00:28:31.355Z,17.50
2022-07-27T00:30:58.055Z,17.50
2022-07-27T00:33:24.661Z,17.50
2022-07-27T00:35:51.269Z,17.40
2022-07-27T00:38:17.922Z,17.50
2022-07-27T00:40:44.778Z,17.60
2022-07-27T00:43:11.450Z,17.60
2022-07-27T00:45:38.058Z,17.60
2022-07-27T00:48:05.238Z,17.50
2022-07-27T00:50:31.952Z,17.60
2022-07-27T00:52:58.956Z,17.50
2022-07-27T00:55:26.364Z,17.50
2022-07-27T00:57:58.947Z,17.50
2022-07-27T01:00:27.617Z,17.50
2022-07-27T01:02:54.868Z,17.40
2022-07-27T01:05:24.397Z,17.30
2022-07-27T01:08:03.357Z,17.20
2022-07-27T01:10:30.114Z,17.20
2022-07-27T01:12:56.761Z,17.20
2022-07-27T01:15:23.560Z,17.20
2022-07-27T01:17:50.184Z,17.30
2022-07-27T01:20:16.989Z,17.30
2022-07-27T01:22:43.641Z,17.40
2022-07-27T01:25:10.632Z,17.40
2022-07-27T01:27:37.276Z,17.50
2022-07-27T01:30:05.625Z,17.40
2022-07-27T01:32:32.222Z,17.40
2022-07-27T01:34:58.840Z,17.20
2022-07-27T01:37:25.460Z,17.20
2022-07-27T01:39:52.113Z,17.20
2022-07-27T01:42:18.794Z,17.20
2022-07-27T01:44:45.400Z,17.30
2022-07-27T01:47:14.491Z,17.30
2022-07-27T01:49:41.757Z,17.30
2022-07-27T01:52:08.394Z,17.30
2022-07-27T01:54:35.020Z,17.30
2022-07-27T01:57:01.626Z,17.40
2022-07-27T01:59:28.252Z,17.40
2022-07-27T02:01:54.924Z,17.40
2022-07-27T02:04:24.652Z,17.40
2022-07-27T02:06:51.308Z,17.40
2022-07-27T02:09:17.940Z,17.20
2022-07-27T02:11:44.555Z,17.10
2022-07-27T02:14:11.167Z,17.00
2022-07-27T02:16:37.883Z,17.10
2022-07-27T02:19:04.899Z,17.00
2022-07-27T02:21:32.040Z,17.10
2022-07-27T02:23:58.668Z,17.10
2022-07-27T02:26:25.311Z,17.10
2022-07-27T02:28:51.923Z,17.10
2022-07-27T02:31:18.571Z,17.10
2022-07-27T02:33:45.344Z,17.10
2022-07-27T02:36:11.950Z,17.10
2022-07-27T02:38:38.561Z,17.20
2022-07-27T02:41:05.225Z,17.20
2022-07-27T02:43:31.869Z,17.20
2022-07-27T02:45:58.574Z,17.30
2022-07-27T02:48:25.334Z,17.40
2022-07-27T02:50:51.982Z,17.30
2022-07-27T02:53:18.626Z,17.30
2022-07-27T02:55:45.333Z,17.40
2022-07-27T02:58:12.039Z,17.40
2022-07-27T03:00:38.684Z,17.30
2022-07-27T03:03:05.300Z,17.20
2022-07-27T03:05:31.946Z,17.20
2022-07-27T03:07:58.622Z,17.20
2022-07-27T03:10:25.240Z,17.20
2022-07-27T03:12:51.843Z,17.20
2022-07-27T03:15:18.479Z,17.20
2022-07-27T03:17:47.242Z,17.30
2022-07-27T03:20:14.491Z,17.30
2022-07-27T03:22:42.070Z,17.20
2022-07-27T03:25:09.652Z,17.30
2022-07-27T03:27:36.392Z,17.20
2022-07-27T03:30:03.583Z,17.20
2022-07-27T03:32:30.220Z,17.30
2022-07-27T03:34:56.860Z,17.30
2022-07-27T03:37:23.500Z,17.30
2022-07-27T03:39:50.198Z,17.40
2022-07-27T03:42:16.954Z,17.30
2022-07-27T03:44:43.564Z,17.30
2022-07-27T03:47:10.207Z,17.40
2022-07-27T03:49:36.819Z,17.40
2022-07-27T03:52:03.726Z,17.30
2022-07-27T03:54:30.381Z,17.30
2022-07-27T03:56:56.995Z,17.20
2022-07-27T03:59:23.590Z,17.20
2022-07-27T04:01:50.170Z,17.20
2022-07-27T04:04:16.786Z,17.30
2022-07-27T04:06:43.404Z,17.20
2022-07-27T04:09:10.024Z,17.30
2022-07-27T04:11:43.425Z,17.30
2022-07-27T04:14:12.734Z,17.40
2022-07-27T04:16:40.175Z,17.40
2022-07-27T04:19:07.242Z,17.40
2022-07-27T04:21:33.987Z,17.40
2022-07-27T04:24:03.888Z,17.40
2022-07-27T04:26:31.962Z,17.40
2022-07-27T04:28:58.783Z,17.30
2022-07-27T04:31:25.482Z,17.20
2022-07-27T04:33:52.102Z,17.20
2022-07-27T04:36:18.739Z,17.10
2022-07-27T04:38:45.448Z,17.30
2022-07-27T04:41:12.480Z,17.30
2022-07-27T04:43:39.530Z,17.40
2022-07-27T04:46:10.518Z,17.40
2022-07-27T04:48:39.913Z,17.40
2022-07-27T04:51:08.085Z,17.50
2022-07-27T04:53:34.794Z,17.50
2022-07-27T04:56:01.420Z,17.60
2022-07-27T04:58:28.040Z,17.60
2022-07-27T05:00:54.733Z,17.60
2022-07-27T05:03:21.352Z,17.50
2022-07-27T05:05:50.122Z,17.50
2022-07-27T05:08:18.111Z,17.60
2022-07-27T05:10:44.867Z,17.60
2022-07-27T05:13:12.127Z,17.70
2022-07-27T05:15:54.591Z,17.70
2022-07-27T05:18:23.064Z,17.80
2022-07-27T05:20:50.455Z,17.80
2022-07-27T05:23:17.896Z,17.80
2022-07-27T05:25:44.667Z,17.90
2022-07-27T05:28:12.068Z,17.90
2022-07-27T05:30:38.807Z,17.90
2022-07-27T05:33:05.434Z,18.00
2022-07-27T05:35:32.083Z,18.00
2022-07-27T05:37:59.033Z,18.10
2022-07-27T05:40:25.794Z,18.30
2022-07-27T05:42:52.428Z,18.50
2022-07-27T05:45:19.212Z,18.60
2022-07-27T05:47:45.953Z,18.60
2022-07-27T05:50:12.756Z,18.70
2022-07-27T05:52:39.456Z,18.90
2022-07-27T05:55:07.010Z,18.90
2022-07-27T05:57:33.634Z,19.00
2022-07-27T06:00:00.333Z,19.10
2022-07-27T06:02:27.850Z,19.20
2022-07-27T06:04:54.644Z,19.10
2022-07-27T06:07:21.625Z,19.20
2022-07-27T06:09:48.288Z,19.30
2022-07-27T06:12:14.878Z,19.40
2022-07-27T06:14:41.857Z,19.40
2022-07-27T06:17:08.479Z,19.40
2022-07-27T06:19:36.142Z,19.60
2022-07-27T06:22:03.138Z,19.60
2022-07-27T06:24:29.757Z,19.50
2022-07-27T06:26:56.402Z,19.60
2022-07-27T06:29:23.047Z,19.80
2022-07-27T06:31:49.853Z,20.00
2022-07-27T06:34:17.670Z,20.10
2022-07-27T06:36:46.416Z,20.20
2022-07-27T06:39:13.659Z,20.20
2022-07-27T06:41:40.618Z,20.30
2022-07-27T06:44:07.248Z,20.30
2022-07-27T06:46:33.921Z,20.30
2022-07-27T06:49:00.643Z,20.30
2022-07-27T06:51:27.260Z,20.40
2022-07-27T06:53:53.892Z,20.50
2022-07-27T06:56:20.911Z,20.50
2022-07-27T06:58:47.574Z,20.50
2022-07-27T07:01:15.240Z,20.60
2022-07-27T07:03:42.023Z,20.80
2022-07-27T07:06:08.695Z,20.90
2022-07-27T07:08:35.459Z,20.90
2022-07-27T07:11:02.343Z,21.00
2022-07-27T07:13:29.087Z,21.10
2022-07-27T07:15:55.986Z,21.20
2022-07-27T07:18:22.894Z,21.40
2022-07-27T07:20:49.515Z,21.50
2022-07-27T07:23:16.139Z,21.50
2022-07-27T07:25:42.870Z,21.60
2022-07-27T07:28:09.574Z,21.70
2022-07-27T07:30:36.313Z,21.70
2022-07-27T07:33:03.161Z,21.80
2022-07-27T07:35:30.308Z,21.90
2022-07-27T07:37:56.961Z,21.90
2022-07-27T07:43:11.397Z,22.00
2022-07-27T07:45:49.487Z,22.10
2022-07-27T07:48:19.293Z,22.30
2022-07-27T07:50:45.922Z,22.20
2022-07-27T07:53:18.403Z,22.40
2022-07-27T07:55:45.183Z,22.50
2022-07-27T07:58:11.782Z,22.60
2022-07-27T08:04:04.395Z,22.70
2022-07-27T08:06:41.131Z,22.70
2022-07-27T08:12:35.817Z,22.70
2022-07-27T08:15:14.090Z,22.70
2022-07-27T08:17:45.229Z,22.50
2022-07-27T08:20:21.143Z,23.00
2022-07-27T08:22:51.621Z,23.10
2022-07-27T08:25:21.138Z,23.20
2022-07-27T08:28:18.201Z,23.20
2022-07-27T08:30:49.937Z,23.30
2022-07-27T08:33:39.879Z,23.30
2022-07-27T08:36:11.150Z,23.30
2022-07-27T08:38:59.748Z,23.50
2022-07-27T08:41:33.290Z,23.70
2022-07-27T08:44:05.819Z,23.90
2022-07-27T08:46:34.306Z,24.20
2022-07-27T08:49:06.763Z,24.30
2022-07-27T08:51:37.131Z,24.50
2022-07-27T08:54:13.767Z,24.60
2022-07-27T08:56:47.875Z,24.80
2022-07-27T08:59:19.052Z,24.90
2022-07-27T09:01:55.133Z,24.80
2022-07-27T09:04:40.732Z,25.00
2022-07-27T09:08:12.512Z,25.10
2022-07-27T09:10:01.781Z,25.20
2022-07-27T09:12:35.230Z,25.20
2022-07-27T09:15:19.298Z,25.30
2022-07-27T09:18:32.920Z,25.50
2022-07-27T09:20:33.921Z,25.60
2022-07-27T09:23:00.729Z,25.80
2022-07-27T09:26:00.330Z,26.00
2022-07-27T09:28:30.750Z,25.90
2022-07-27T09:31:10.604Z,26.00
2022-07-27T09:33:46.186Z,26.20
2022-07-27T09:36:20.036Z,26.30
2022-07-27T09:39:07.044Z,26.10
2022-07-27T09:41:51.469Z,26.10
2022-07-27T09:44:42.158Z,26.00
2022-07-27T09:47:28.556Z,25.90
2022-07-27T09:50:01.319Z,25.50
2022-07-27T09:52:31.571Z,25.60
2022-07-27T09:55:07.980Z,25.30
2022-07-27T09:57:54.453Z,25.20
2022-07-27T10:00:23.620Z,25.30
2022-07-27T10:02:51.607Z,25.20
2022-07-27T10:05:19.144Z,25.50
2022-07-27T10:07:46.230Z,25.80
2022-07-27T10:10:15.638Z,25.80
2022-07-27T10:12:51.930Z,25.60
2022-07-27T10:15:26.914Z,25.80
2022-07-27T10:18:22.522Z,25.60
2022-07-27T10:20:53.577Z,25.50
2022-07-27T10:23:33.090Z,25.40
2022-07-27T10:26:33.598Z,25.30
2022-07-27T10:29:22.992Z,25.40
2022-07-27T10:32:11.968Z,25.30
2022-07-27T10:34:41.642Z,25.30
2022-07-27T10:37:13.498Z,25.10
2022-07-27T10:39:54.232Z,25.10
2022-07-27T10:42:29.838Z,25.00
2022-07-27T10:45:05.269Z,25.10
2022-07-27T10:47:42.029Z,25.40
2022-07-27T10:50:32.049Z,25.20
2022-07-27T10:53:07.493Z,25.20
2022-07-27T10:55:34.401Z,25.00
2022-07-27T10:58:17.468Z,25.00
2022-07-27T11:00:57.411Z,25.10
2022-07-27T11:03:29.123Z,25.20
2022-07-27T11:07:04.665Z,25.20
2022-07-27T11:12:34.907Z,25.40
2022-07-27T11:15:02.738Z,25.60
2022-07-27T11:17:59.391Z,25.80
2022-07-27T11:20:26.762Z,25.90
2022-07-27T11:26:23.786Z,25.80
2022-07-27T11:29:00.080Z,25.90
2022-07-27T11:34:34.796Z,25.40
2022-07-27T11:37:04.900Z,25.40
2022-07-27T11:40:00.097Z,25.40
2022-07-27T11:42:24.974Z,25.30
2022-07-27T11:44:54.960Z,25.10
2022-07-27T11:47:22.360Z,25.10
2022-07-27T11:49:51.577Z,25.00
2022-07-27T11:52:18.657Z,25.10
2022-07-27T11:54:55.261Z,25.10
2022-07-27T11:57:31.991Z,25.00
2022-07-27T12:00:18.390Z,25.10
2022-07-27T12:03:00.167Z,25.40
2022-07-27T12:05:46.861Z,25.90
2022-07-27T12:08:14.229Z,26.10
2022-07-27T12:12:03.790Z,26.50
2022-07-27T12:16:58.493Z,26.80
2022-07-27T12:19:30.868Z,27.00
2022-07-27T12:25:21.131Z,27.00
2022-07-27T12:28:23.499Z,27.00
2022-07-27T12:30:52.488Z,26.50
2022-07-27T12:33:36.222Z,26.40
2022-07-27T12:38:51.514Z,26.10
2022-07-27T12:41:29.938Z,25.70
2022-07-27T12:44:18.881Z,25.90
2022-07-27T12:47:47.685Z,26.00
2022-07-27T12:50:26.775Z,26.10
2022-07-27T12:53:20.345Z,26.00
2022-07-27T12:58:37.499Z,26.10
2022-07-27T13:01:17.051Z,26.20
2022-07-27T13:03:44.077Z,26.30
2022-07-27T13:06:22.590Z,26.60
2022-07-27T13:09:10.827Z,26.90
2022-07-27T13:18:29.851Z,27.00
2022-07-27T13:22:53.750Z,27.10
2022-07-27T13:24:09.511Z,27.00
2022-07-27T13:26:37.392Z,26.80
2022-07-27T13:29:33.010Z,26.90
2022-07-27T13:44:57.488Z,26.50
2022-07-27T13:47:30.422Z,26.30
2022-07-27T13:50:00.176Z,26.20
2022-07-27T13:56:08.890Z,26.10
2022-07-27T14:02:06.367Z,25.90
2022-07-27T14:04:35.838Z,25.90
2022-07-27T14:10:11.224Z,25.80
2022-07-27T14:20:03.531Z,25.90
2022-07-27T14:23:07.971Z,26.00
2022-07-27T14:31:47.495Z,26.50
2022-07-27T14:35:09.639Z,26.50
2022-07-27T14:38:12.636Z,26.30
2022-07-27T14:41:14.877Z,26.10
2022-07-27T14:44:01.283Z,26.10
2022-07-27T14:46:54.833Z,26.00
2022-07-27T14:50:08.871Z,26.10
2022-07-27T14:54:52.929Z,25.80
2022-07-27T14:57:42.375Z,25.80
2022-07-27T15:00:10.633Z,25.80
2022-07-27T15:03:14.801Z,25.70
2022-07-27T15:05:49.614Z,25.50
2022-07-27T15:08:24.209Z,25.60
2022-07-27T15:12:02.779Z,25.60
2022-07-27T15:14:14.730Z,25.60
2022-07-27T15:16:52.738Z,25.60
2022-07-27T15:19:22.412Z,25.40
2022-07-27T15:21:49.693Z,25.40
2022-07-27T15:28:01.192Z,25.40
2022-07-27T15:33:28.783Z,25.30
2022-07-27T15:36:03.261Z,25.40
2022-07-27T15:38:35.481Z,25.30
2022-07-27T15:41:02.505Z,25.30
2022-07-27T15:43:31.853Z,25.30
2022-07-27T15:46:06.961Z,25.40
2022-07-27T15:48:34.446Z,25.60
2022-07-27T15:51:02.051Z,25.60
2022-07-27T15:53:38.769Z,25.70
2022-07-27T15:56:13.397Z,25.60
2022-07-27T15:58:52.288Z,25.60
2022-07-27T16:01:34.846Z,25.50
2022-07-27T16:04:19.545Z,25.50
2022-07-27T16:07:04.700Z,25.70
2022-07-27T16:10:11.007Z,25.70
2022-07-27T16:12:59.077Z,25.50
2022-07-27T16:15:31.300Z,25.40
2022-07-27T16:18:12.692Z,25.30
2022-07-27T16:20:44.578Z,25.20
2022-07-27T16:23:18.143Z,25.10
2022-07-27T16:26:06.046Z,25.00
2022-07-27T16:28:42.761Z,25.00
2022-07-27T16:31:11.454Z,25.10
2022-07-27T16:33:38.708Z,25.00
2022-07-27T16:36:08.270Z,25.10
2022-07-27T16:38:58.947Z,25.10
2022-07-27T16:44:38.783Z,25.00
2022-07-27T16:47:08.264Z,24.90
2022-07-27T16:49:36.805Z,24.90
2022-07-27T16:52:05.535Z,24.90
2022-07-27T16:54:39.212Z,24.90
2022-07-27T16:57:07.454Z,25.00
2022-07-27T16:59:35.719Z,25.00
2022-07-27T17:02:07.304Z,25.10
2022-07-27T17:04:34.376Z,24.90
2022-07-27T17:07:01.248Z,25.10
2022-07-27T17:09:28.340Z,25.00
2022-07-27T17:11:57.575Z,24.90
2022-07-27T17:14:27.132Z,24.80
2022-07-27T17:16:54.641Z,24.80
2022-07-27T17:19:21.648Z,24.80
2022-07-27T17:21:52.412Z,24.90
2022-07-27T17:24:19.217Z,24.80
2022-07-27T17:26:46.210Z,24.60
2022-07-27T17:29:22.479Z,24.60
2022-07-27T17:31:49.445Z,24.60
2022-07-27T17:34:19.453Z,24.40
2022-07-27T17:37:10.589Z,24.20
2022-07-27T17:39:43.706Z,24.20
2022-07-27T17:42:10.689Z,24.00
2022-07-27T17:44:37.927Z,24.00
2022-07-27T17:47:05.540Z,24.00
2022-07-27T17:49:35.373Z,24.00
2022-07-27T17:52:02.680Z,23.90
2022-07-27T17:54:29.508Z,23.90
2022-07-27T17:56:56.465Z,23.80
2022-07-27T17:59:38.873Z,23.80
2022-07-27T18:02:05.914Z,23.70
2022-07-27T18:04:38.632Z,23.70
2022-07-27T18:07:06.200Z,23.70
2022-07-27T18:09:33.110Z,23.60
2022-07-27T18:12:00.169Z,23.50
2022-07-27T18:14:29.887Z,23.50
2022-07-27T18:16:57.860Z,23.60
2022-07-27T18:19:24.630Z,23.50
2022-07-27T18:21:56.450Z,23.40
2022-07-27T18:24:23.301Z,23.30
2022-07-27T18:26:50.666Z,23.20
2022-07-27T18:29:18.141Z,23.20
2022-07-27T18:31:45.167Z,23.20
2022-07-27T18:34:13.068Z,23.10
2022-07-27T18:36:40.021Z,23.10
2022-07-27T18:39:06.890Z,23.00
2022-07-27T18:41:33.709Z,23.00
2022-07-27T18:44:03.404Z,23.00
2022-07-27T18:46:30.317Z,22.90
2022-07-27T18:49:00.301Z,22.80
2022-07-27T18:51:27.260Z,22.80
2022-07-27T18:53:55.611Z,22.80
2022-07-27T18:56:22.450Z,22.80
2022-07-27T18:58:51.858Z,22.80
2022-07-27T19:01:18.774Z,22.80
2022-07-27T19:03:45.690Z,22.70
2022-07-27T19:06:22.623Z,22.70
2022-07-27T19:09:07.317Z,22.70
2022-07-27T19:11:45.293Z,22.70
2022-07-27T19:14:14.868Z,22.70
2022-07-27T19:16:47.596Z,22.60
2022-07-27T19:19:23.276Z,22.70
2022-07-27T19:22:28.911Z,22.60
2022-07-27T19:25:12.510Z,22.60
2022-07-27T19:28:00.871Z,22.50
2022-07-27T19:30:42.439Z,22.50
2022-07-27T19:33:29.790Z,22.60
2022-07-27T19:35:56.943Z,22.60
2022-07-27T19:38:32.491Z,22.60
2022-07-27T19:40:59.649Z,22.50
2022-07-27T19:43:32.241Z,22.40
2022-07-27T19:45:59.503Z,22.40
2022-07-27T19:48:30.211Z,22.30
2022-07-27T19:51:06.294Z,22.30
2022-07-27T19:53:44.354Z,22.30
2022-07-27T19:56:13.860Z,22.20
2022-07-27T19:58:44.703Z,22.20
2022-07-27T20:01:12.160Z,22.20
2022-07-27T20:03:52.244Z,22.10
2022-07-27T20:06:21.212Z,22.10
2022-07-27T20:08:47.845Z,22.00
2022-07-27T20:11:14.493Z,22.00
2022-07-27T20:13:41.142Z,21.90
2022-07-27T20:16:07.860Z,21.90
2022-07-27T20:18:34.465Z,21.90
2022-07-27T20:21:01.359Z,21.80
2022-07-27T20:23:27.998Z,21.70
2022-07-27T20:25:54.604Z,21.70
2022-07-27T20:28:21.219Z,21.60
2022-07-27T20:30:47.872Z,21.50
2022-07-27T20:33:14.503Z,21.50
2022-07-27T20:35:41.138Z,21.50
2022-07-27T20:38:07.742Z,21.50
2022-07-27T20:40:34.401Z,21.40
2022-07-27T20:43:01.006Z,21.40
2022-07-27T20:45:27.693Z,21.30
2022-07-27T20:47:54.316Z,21.30
2022-07-27T20:50:20.934Z,21.30
2022-07-27T20:52:47.562Z,21.20
2022-07-27T20:55:14.361Z,21.20
2022-07-27T20:57:40.988Z,21.10
2022-07-27T21:00:08.452Z,21.00
2022-07-27T21:02:35.537Z,21.00
2022-07-27T21:05:02.193Z,20.90
2022-07-27T21:07:28.842Z,20.90
2022-07-27T21:09:55.653Z,20.80
2022-07-27T21:12:22.282Z,20.70
2022-07-27T21:14:49.133Z,20.70
2022-07-27T21:17:15.792Z,20.70
2022-07-27T21:19:42.416Z,20.50
2022-07-27T21:22:09.044Z,20.60
2022-07-27T21:24:36.786Z,20.50
2022-07-27T21:27:04.565Z,20.50
2022-07-27T21:29:31.992Z,20.40
2022-07-27T21:31:59.085Z,20.40
2022-07-27T21:34:26.018Z,20.40
2022-07-27T21:36:52.923Z,20.30
2022-07-27T21:39:20.250Z,20.30
2022-07-27T21:41:47.158Z,20.30
2022-07-27T21:44:14.353Z,20.20
2022-07-27T21:46:41.236Z,20.20
2022-07-27T21:49:08.034Z,20.10
2022-07-27T21:51:34.818Z,20.00
2022-07-27T21:54:01.607Z,20.00
2022-07-27T21:56:28.405Z,19.90
2022-07-27T21:58:55.075Z,19.90
2022-07-27T22:01:22.048Z,19.90
2022-07-27T22:03:48.855Z,19.90
2022-07-27T22:06:15.520Z,19.80
2022-07-27T22:08:42.361Z,19.80
2022-07-27T22:11:09.299Z,19.80
2022-07-27T22:13:35.993Z,19.70
2022-07-27T22:16:03.512Z,19.60
2022-07-27T22:18:30.606Z,19.60
2022-07-27T22:20:57.698Z,19.50
2022-07-27T22:23:24.634Z,19.50
2022-07-27T22:25:51.501Z,19.50
2022-07-27T22:28:18.113Z,19.50
2022-07-27T22:31:11.858Z,19.40
2022-07-27T22:33:31.450Z,19.30
2022-07-27T22:35:58.192Z,19.30
2022-07-27T22:38:24.819Z,19.20
2022-07-27T22:40:55.489Z,19.20
2022-07-27T22:43:22.623Z,19.10
2022-07-27T22:45:50.235Z,19.10
2022-07-27T22:48:16.911Z,19.00
2022-07-27T22:50:47.079Z,19.00
2022-07-27T22:53:16.725Z,18.90
2022-07-27T22:55:43.619Z,18.90
2022-07-27T22:58:10.232Z,18.80
2022-07-27T23:00:37.000Z,18.90
2022-07-27T23:03:03.750Z,18.80
2022-07-27T23:05:30.479Z,18.80
2022-07-27T23:07:57.145Z,18.80
2022-07-27T23:10:28.730Z,18.80
2022-07-27T23:12:57.148Z,18.70
2022-07-27T23:15:23.983Z,18.70
2022-07-27T23:17:50.606Z,18.60
2022-07-27T23:20:17.366Z,18.60
2022-07-27T23:22:44.033Z,18.60
2022-07-27T23:25:16.236Z,18.50
2022-07-27T23:27:43.046Z,18.50
2022-07-27T23:30:10.203Z,18.50
2022-07-27T23:32:36.842Z,18.50
2022-07-27T23:35:04.107Z,18.50
2022-07-27T23:37:30.739Z,18.50
2022-07-27T23:39:57.406Z,18.50
2022-07-27T23:42:24.042Z,18.40
2022-07-27T23:44:50.691Z,18.40
2022-07-27T23:47:18.853Z,18.30
2022-07-27T23:49:45.506Z,18.30
2022-07-27T23:52:12.154Z,18.30
2022-07-27T23:54:38.804Z,18.20
2022-07-27T23:57:05.697Z,18.20
2022-07-27T23:59:32.330Z,18.20
